Linda — OJML — position and weather

sailwx.info

Track history (hours):
 
Tides and Currents Weather Stations Pressure Air Temp Water Temp Dewpoint Dewpoint Depression Visibility Wind Speed Wind Dir Waves Ship Positions

Linda

Last reported at 2015-Mar-03 23:04 UTC. Time now 2015-Mar-04 15:19 UTC.
Position N 59°59' E 026°46'.

Length 141 m; draft 7.5 m.

Type: Ship (hazmat cat A). MMSI: 230984000.

Date/timePositionNaut miles runAvg speedWind from/ knotsBaromVisibWave heightAir tempDewpointWater temp
2015-Mar-03 23:04N 59°59' E 026°46'917.3
2015-Mar-03 22:33N 59°58' E 026°28'3913.1
2015-Mar-03 19:34N 60°10' E 025°13'3 1.4
2015-Mar-03 17:30N 60°13' E 025°12'0 0.0
2015-Mar-03 16:33N 60°13' E 025°12'0 0.0
2015-Mar-03 15:33N 60°13' E 025°12'0 0.0
2015-Mar-03 14:15N 60°13' E 025°12'0 0.0
2015-Mar-03 12:21N 60°13' E 025°12'4 5.3
2015-Mar-03 11:33N 60°08' E 025°12'2316.3
2015-Mar-03 10:09N 59°49' E 024°49'1116.0
2015-Mar-03 09:26N 59°44' E 024°28'373 9.1
2015-Mar-01 16:33N 55°41' E 015°37'1716.8
2015-Mar-01 15:33N 55°34' E 015°11'1716.7
2015-Mar-01 14:33N 55°25' E 014°45'1716.6
2015-Mar-01 13:33N 55°13' E 014°25'1616.4
2015-Mar-01 12:33N 55°01' E 014°06'1716.5
2015-Mar-01 11:33N 54°55' E 013°40'1716.9
2015-Mar-01 10:31N 54°48' E 013°11'1916.3
2015-Mar-01 09:19N 54°40' E 012°40'1216.0
2015-Mar-01 08:33N 54°33' E 012°23'1515.3
2015-Mar-01 07:33N 54°24' E 012°02'1616.4
2015-Mar-01 06:33N 54°17' E 011°37'1716.7
2015-Mar-01 05:33N 54°08' E 011°13'8 0.8
2015-Feb-28 19:30N 54°03' E 011°01'1617.2
2015-Feb-28 18:33N 54°13' E 011°23'1616.1
2015-Feb-28 17:33N 54°29' E 011°23'1515.0
2015-Feb-28 16:33N 54°35' E 010°60'1717.2
2015-Feb-28 15:33N 54°32' E 010°30'1413.9
2015-Feb-28 14:33N 54°23' E 010°12'3 2.6
2015-Feb-28 13:34N 54°22' E 010°08'6 6.2
2015-Feb-28 12:33N 54°21' E 009°58'6 6.3
2015-Feb-28 11:33N 54°22' E 009°47'7 6.9
2015-Feb-28 10:33N 54°17' E 009°38'8 7.7
2015-Feb-28 09:33N 54°11' E 009°29'8 7.5
2015-Feb-28 08:31N 54°06' E 009°20'8 8.4
2015-Feb-28 07:33N 53°58' E 009°16'2 2.1
2015-Feb-28 06:34N 53°57' E 009°14'4 4.2
2015-Feb-28 05:33N 53°54' E 009°09'2 2.0
2015-Feb-28 04:34N 53°53' E 009°05'1211.6
2015-Feb-28 03:33N 53°51' E 008°46'1515.4
2015-Feb-28 02:33N 53°59' E 008°24'1717.5
2015-Feb-28 01:34N 53°57' E 007°54'1817.7
2015-Feb-28 00:33N 53°53' E 007°25'1717.0
2015-Feb-27 23:33N 53°50' E 006°57'1816.5
2015-Feb-27 22:30N 53°46' E 006°28'1616.7
2015-Feb-27 21:33N 53°41' E 006°03'1716.6
2015-Feb-27 20:34N 53°36' E 005°36'1616.2
2015-Feb-27 19:33N 53°31' E 005°10'1716.6
2015-Feb-27 18:34N 53°24' E 004°45'1816.0
2015-Feb-27 17:28N 53°09' E 004°31'1516.2
2015-Feb-27 16:33N 52°56' E 004°19'1616.1
2015-Feb-27 15:33N 52°43' E 004°04'1616.3
2015-Feb-27 14:33N 52°30' E 003°46'3316.4
2015-Feb-27 12:33N 52°01' E 003°23'1816.8
2015-Feb-27 11:28N 51°43' E 003°15'1414.9
2015-Feb-27 10:34N 51°31' E 003°26'1514.9
2015-Feb-27 09:34N 51°22' E 003°45'4 3.7
2015-Feb-27 08:33N 51°20' E 003°49'4 4.5
2015-Feb-27 07:34N 51°15' E 003°50'7 6.8
2015-Feb-27 06:34N 51°09' E 003°47'2 1.9
2015-Feb-27 05:30N 51°07' E 003°45'0 0.0
2015-Feb-27 04:33N 51°07' E 003°45'0 0.0
2015-Feb-27 03:30N 51°07' E 003°45'0 0.0
2015-Feb-27 02:30N 51°07' E 003°45'0 0.0
2015-Feb-27 01:30N 51°07' E 003°45'0 0.0
2015-Feb-27 00:33N 51°07' E 003°45'0 0.0
2015-Feb-26 23:33N 51°07' E 003°45'0 0.0
2015-Feb-26 22:33N 51°07' E 003°45'0 0.0
2015-Feb-26 21:33N 51°07' E 003°45'0 0.0
2015-Feb-26 20:33N 51°07' E 003°45'0 0.0
2015-Feb-26 19:33N 51°07' E 003°45'0 0.0
2015-Feb-26 18:33N 51°07' E 003°45'0 0.0
2015-Feb-26 17:33N 51°07' E 003°45'0 0.0
2015-Feb-26 16:33N 51°07' E 003°45'1 1.5
2015-Feb-26 15:34N 51°08' E 003°46'8 8.0
2015-Feb-26 14:33N 51°16' E 003°50'4 3.9
2015-Feb-26 13:34N 51°20' E 003°49'2 2.0
2015-Feb-26 12:33N 51°21' E 003°47'1110.9
2015-Feb-26 11:33N 51°25' E 003°31'1414.2
2015-Feb-26 10:32N 51°24' E 003°08'1615.8
2015-Feb-26 09:33N 51°22' E 002°43'1716.8
2015-Feb-26 08:34N 51°19' E 002°17'1615.8
2015-Feb-26 07:33N 51°26' E 001°54'1716.5
2015-Feb-26 06:34N 51°28' E 001°28'1615.8
2015-Feb-26 05:34N 51°30' E 001°03'1211.7
2015-Feb-26 04:32N 51°26' E 000°44'0 0.0
2015-Feb-26 03:32N 51°26' E 000°44'0 0.0
2015-Feb-26 02:32N 51°26' E 000°44'0 0.0
2015-Feb-26 01:32N 51°26' E 000°44'0 0.0
2015-Feb-26 00:32N 51°26' E 000°44'0 0.0
2015-Feb-25 23:32N 51°26' E 000°44'0 0.0
2015-Feb-25 22:32N 51°26' E 000°44'0 0.0
2015-Feb-25 21:32N 51°26' E 000°44'0 0.0
2015-Feb-25 20:33N 51°26' E 000°44'9 9.3
2015-Feb-25 19:33N 51°29' E 000°59'1313.3
2015-Feb-25 18:34N 51°29' E 001°20'1211.5
2015-Feb-25 17:34N 51°32' E 001°38'1515.3
2015-Feb-25 16:34N 51°47' E 001°44'1717.2
2015-Feb-25 15:33N 52°04' E 001°47'1818.1
2015-Feb-25 14:34N 52°22' E 001°52'1919.1
2015-Feb-25 13:33N 52°41' E 001°55'1918.7
2015-Feb-25 12:34N 52°56' E 001°37'1918.7
2015-Feb-25 11:33N 53°12' E 001°19'3618.3
2015-Feb-25 09:33N 53°42' E 000°46'1818.4
2015-Feb-25 08:34N 53°56' E 000°25'1818.1
2015-Feb-25 07:34N 54°09' E 000°05'1817.9
2015-Feb-25 06:34N 54°22' W 000°17'1717.4
2015-Feb-25 05:33N 54°34' W 000°38'1717.2
2015-Feb-25 04:33N 54°40' W 001°07'5 0.6
2015-Feb-24 19:33N 54°40' W 000°58'1812.6
2015-Feb-24 18:05N 54°31' W 000°30'814.3
2015-Feb-24 17:33N 54°26' W 000°19'1514.9
2015-Feb-24 16:33N 54°17' W 000°00'1515.5
2015-Feb-24 15:33N 54°07' E 000°20'1615.9
2015-Feb-24 14:33N 53°56' E 000°40'14912.3
2015-Feb-24 02:26N 53°31' E 004°48'1314.3
2015-Feb-24 01:32N 53°36' E 005°07'1414.0
2015-Feb-24 00:34N 53°39' E 005°30'1413.9
2015-Feb-23 23:34N 53°44' E 005°52'1413.8
2015-Feb-23 22:31N 53°48' E 006°15'3214.3
2015-Feb-23 20:18N 53°56' E 007°07'1216.1
2015-Feb-23 19:33N 53°60' E 007°27'1716.7
2015-Feb-23 18:33N 54°02' E 007°55'1717.0
2015-Feb-23 17:33N 53°59' E 008°24'1615.8
2015-Feb-23 16:34N 53°51' E 008°46'1313.2
2015-Feb-23 15:33N 53°53' E 009°08'2 1.7
2015-Feb-23 14:33N 53°55' E 009°11'8 7.9
2015-Feb-23 13:33N 54°01' E 009°18'5 5.4
2015-Feb-23 12:33N 54°07' E 009°20'8 7.7
2015-Feb-23 11:32N 54°11' E 009°30'8 7.9
2015-Feb-23 10:33N 54°17' E 009°39'25 5.5
2015-Feb-23 06:05N 54°29' E 010°16'712.5
2015-Feb-23 05:33N 54°32' E 010°26'1715.1
2015-Feb-23 04:27N 54°35' E 010°55'1315.1
2015-Feb-23 03:33N 54°34' E 011°18'1616.0
2015-Feb-23 02:33N 54°28' E 011°43'1515.3
2015-Feb-23 01:33N 54°26' E 012°09'1814.3
2015-Feb-23 00:16N 54°42' E 012°27'2615.2
2015-Feb-22 22:33N 54°53' E 013°07'1615.9
2015-Feb-22 21:32N 54°59' E 013°34'1515.9
2015-Feb-22 20:33N 55°04' E 013°60'1515.2
2015-Feb-22 19:33N 55°14' E 014°19'1515.3
2015-Feb-22 18:33N 55°26' E 014°37'1615.5
2015-Feb-22 17:33N 55°27' E 015°04'1615.6
2015-Feb-22 16:33N 55°28' E 015°32'  
Track history (hours):
 
Tides and Currents Weather Stations Pressure Air Temp Water Temp Dewpoint Dewpoint Depression Visibility Wind Speed Wind Dir Waves Ship Positions

Linda

Last reported at 2015-Mar-03 23:04 UTC. Time now 2015-Mar-04 15:19 UTC.
Position N 59°59' E 026°46'.

Length 141 m; draft 7.5 m.

Type: Ship (hazmat cat A). MMSI: 230984000.

Date/timePositionNaut miles runAvg speedWind from/ knotsBaromVisibWave heightAir tempDewpointWater temp
2015-Mar-03 23:04N 59°59' E 026°46'917.3
2015-Mar-03 22:33N 59°58' E 026°28'3913.1
2015-Mar-03 19:34N 60°10' E 025°13'3 1.4
2015-Mar-03 17:30N 60°13' E 025°12'0 0.0
2015-Mar-03 16:33N 60°13' E 025°12'0 0.0
2015-Mar-03 15:33N 60°13' E 025°12'0 0.0
2015-Mar-03 14:15N 60°13' E 025°12'0 0.0
2015-Mar-03 12:21N 60°13' E 025°12'4 5.3
2015-Mar-03 11:33N 60°08' E 025°12'2316.3
2015-Mar-03 10:09N 59°49' E 024°49'1116.0
2015-Mar-03 09:26N 59°44' E 024°28'373 9.1
2015-Mar-01 16:33N 55°41' E 015°37'1716.8
2015-Mar-01 15:33N 55°34' E 015°11'1716.7
2015-Mar-01 14:33N 55°25' E 014°45'1716.6
2015-Mar-01 13:33N 55°13' E 014°25'1616.4
2015-Mar-01 12:33N 55°01' E 014°06'1716.5
2015-Mar-01 11:33N 54°55' E 013°40'1716.9
2015-Mar-01 10:31N 54°48' E 013°11'1916.3
2015-Mar-01 09:19N 54°40' E 012°40'1216.0
2015-Mar-01 08:33N 54°33' E 012°23'1515.3
2015-Mar-01 07:33N 54°24' E 012°02'1616.4
2015-Mar-01 06:33N 54°17' E 011°37'1716.7
2015-Mar-01 05:33N 54°08' E 011°13'8 0.8
2015-Feb-28 19:30N 54°03' E 011°01'1617.2
2015-Feb-28 18:33N 54°13' E 011°23'1616.1
2015-Feb-28 17:33N 54°29' E 011°23'1515.0
2015-Feb-28 16:33N 54°35' E 010°60'1717.2
2015-Feb-28 15:33N 54°32' E 010°30'1413.9
2015-Feb-28 14:33N 54°23' E 010°12'3 2.6
2015-Feb-28 13:34N 54°22' E 010°08'6 6.2
2015-Feb-28 12:33N 54°21' E 009°58'6 6.3
2015-Feb-28 11:33N 54°22' E 009°47'7 6.9
2015-Feb-28 10:33N 54°17' E 009°38'8 7.7
2015-Feb-28 09:33N 54°11' E 009°29'8 7.5
2015-Feb-28 08:31N 54°06' E 009°20'8 8.4
2015-Feb-28 07:33N 53°58' E 009°16'2 2.1
2015-Feb-28 06:34N 53°57' E 009°14'4 4.2
2015-Feb-28 05:33N 53°54' E 009°09'2 2.0
2015-Feb-28 04:34N 53°53' E 009°05'1211.6
2015-Feb-28 03:33N 53°51' E 008°46'1515.4
2015-Feb-28 02:33N 53°59' E 008°24'1717.5
2015-Feb-28 01:34N 53°57' E 007°54'1817.7
2015-Feb-28 00:33N 53°53' E 007°25'1717.0
2015-Feb-27 23:33N 53°50' E 006°57'1816.5
2015-Feb-27 22:30N 53°46' E 006°28'1616.7
2015-Feb-27 21:33N 53°41' E 006°03'1716.6
2015-Feb-27 20:34N 53°36' E 005°36'1616.2
2015-Feb-27 19:33N 53°31' E 005°10'1716.6
2015-Feb-27 18:34N 53°24' E 004°45'1816.0
2015-Feb-27 17:28N 53°09' E 004°31'1516.2
2015-Feb-27 16:33N 52°56' E 004°19'1616.1
2015-Feb-27 15:33N 52°43' E 004°04'1616.3
2015-Feb-27 14:33N 52°30' E 003°46'3316.4
2015-Feb-27 12:33N 52°01' E 003°23'1816.8
2015-Feb-27 11:28N 51°43' E 003°15'1414.9
2015-Feb-27 10:34N 51°31' E 003°26'1514.9
2015-Feb-27 09:34N 51°22' E 003°45'4 3.7
2015-Feb-27 08:33N 51°20' E 003°49'4 4.5
2015-Feb-27 07:34N 51°15' E 003°50'7 6.8
2015-Feb-27 06:34N 51°09' E 003°47'2 1.9
2015-Feb-27 05:30N 51°07' E 003°45'0 0.0
2015-Feb-27 04:33N 51°07' E 003°45'0 0.0
2015-Feb-27 03:30N 51°07' E 003°45'0 0.0
2015-Feb-27 02:30N 51°07' E 003°45'0 0.0
2015-Feb-27 01:30N 51°07' E 003°45'0 0.0
2015-Feb-27 00:33N 51°07' E 003°45'0 0.0
2015-Feb-26 23:33N 51°07' E 003°45'0 0.0
2015-Feb-26 22:33N 51°07' E 003°45'0 0.0
2015-Feb-26 21:33N 51°07' E 003°45'0 0.0
2015-Feb-26 20:33N 51°07' E 003°45'0 0.0
2015-Feb-26 19:33N 51°07' E 003°45'0 0.0
2015-Feb-26 18:33N 51°07' E 003°45'0 0.0
2015-Feb-26 17:33N 51°07' E 003°45'0 0.0
2015-Feb-26 16:33N 51°07' E 003°45'1 1.5
2015-Feb-26 15:34N 51°08' E 003°46'8 8.0
2015-Feb-26 14:33N 51°16' E 003°50'4 3.9
2015-Feb-26 13:34N 51°20' E 003°49'2 2.0
2015-Feb-26 12:33N 51°21' E 003°47'1110.9
2015-Feb-26 11:33N 51°25' E 003°31'1414.2
2015-Feb-26 10:32N 51°24' E 003°08'1615.8
2015-Feb-26 09:33N 51°22' E 002°43'1716.8
2015-Feb-26 08:34N 51°19' E 002°17'1615.8
2015-Feb-26 07:33N 51°26' E 001°54'1716.5
2015-Feb-26 06:34N 51°28' E 001°28'1615.8
2015-Feb-26 05:34N 51°30' E 001°03'1211.7
2015-Feb-26 04:32N 51°26' E 000°44'0 0.0
2015-Feb-26 03:32N 51°26' E 000°44'0 0.0
2015-Feb-26 02:32N 51°26' E 000°44'0 0.0
2015-Feb-26 01:32N 51°26' E 000°44'0 0.0
2015-Feb-26 00:32N 51°26' E 000°44'0 0.0
2015-Feb-25 23:32N 51°26' E 000°44'0 0.0
2015-Feb-25 22:32N 51°26' E 000°44'0 0.0
2015-Feb-25 21:32N 51°26' E 000°44'0 0.0
2015-Feb-25 20:33N 51°26' E 000°44'9 9.3
2015-Feb-25 19:33N 51°29' E 000°59'1313.3
2015-Feb-25 18:34N 51°29' E 001°20'1211.5
2015-Feb-25 17:34N 51°32' E 001°38'1515.3
2015-Feb-25 16:34N 51°47' E 001°44'1717.2
2015-Feb-25 15:33N 52°04' E 001°47'1818.1
2015-Feb-25 14:34N 52°22' E 001°52'1919.1
2015-Feb-25 13:33N 52°41' E 001°55'1918.7
2015-Feb-25 12:34N 52°56' E 001°37'1918.7
2015-Feb-25 11:33N 53°12' E 001°19'3618.3
2015-Feb-25 09:33N 53°42' E 000°46'1818.4
2015-Feb-25 08:34N 53°56' E 000°25'1818.1
2015-Feb-25 07:34N 54°09' E 000°05'1817.9
2015-Feb-25 06:34N 54°22' W 000°17'1717.4
2015-Feb-25 05:33N 54°34' W 000°38'1717.2
2015-Feb-25 04:33N 54°40' W 001°07'5 0.6
2015-Feb-24 19:33N 54°40' W 000°58'1812.6
2015-Feb-24 18:05N 54°31' W 000°30'814.3
2015-Feb-24 17:33N 54°26' W 000°19'1514.9
2015-Feb-24 16:33N 54°17' W 000°00'1515.5
2015-Feb-24 15:33N 54°07' E 000°20'1615.9
2015-Feb-24 14:33N 53°56' E 000°40'14912.3
2015-Feb-24 02:26N 53°31' E 004°48'1314.3
2015-Feb-24 01:32N 53°36' E 005°07'1414.0
2015-Feb-24 00:34N 53°39' E 005°30'1413.9
2015-Feb-23 23:34N 53°44' E 005°52'1413.8
2015-Feb-23 22:31N 53°48' E 006°15'3214.3
2015-Feb-23 20:18N 53°56' E 007°07'1216.1
2015-Feb-23 19:33N 53°60' E 007°27'1716.7
2015-Feb-23 18:33N 54°02' E 007°55'1717.0
2015-Feb-23 17:33N 53°59' E 008°24'1615.8
2015-Feb-23 16:34N 53°51' E 008°46'1313.2
2015-Feb-23 15:33N 53°53' E 009°08'2 1.7
2015-Feb-23 14:33N 53°55' E 009°11'8 7.9
2015-Feb-23 13:33N 54°01' E 009°18'5 5.4
2015-Feb-23 12:33N 54°07' E 009°20'8 7.7
2015-Feb-23 11:32N 54°11' E 009°30'8 7.9
2015-Feb-23 10:33N 54°17' E 009°39'25 5.5
2015-Feb-23 06:05N 54°29' E 010°16'712.5
2015-Feb-23 05:33N 54°32' E 010°26'1715.1
2015-Feb-23 04:27N 54°35' E 010°55'1315.1
2015-Feb-23 03:33N 54°34' E 011°18'1616.0
2015-Feb-23 02:33N 54°28' E 011°43'1515.3
2015-Feb-23 01:33N 54°26' E 012°09'1814.3
2015-Feb-23 00:16N 54°42' E 012°27'2615.2
2015-Feb-22 22:33N 54°53' E 013°07'1615.9
2015-Feb-22 21:32N 54°59' E 013°34'1515.9
2015-Feb-22 20:33N 55°04' E 013°60'1515.2
2015-Feb-22 19:33N 55°14' E 014°19'1515.3
2015-Feb-22 18:33N 55°26' E 014°37'1615.5
2015-Feb-22 17:33N 55°27' E 015°04'1615.6
2015-Feb-22 16:33N 55°28' E 015°32'  

Dump ship's entire track history